CDT,Max TemperatureF,Mean TemperatureF,Min TemperatureF,Max Dew PointF,MeanDew PointF,Min DewpointF,Max Humidity, Mean Humidity, Min Humidity, Max Sea Level PressureIn, Mean Sea Level PressureIn, Min Sea Level PressureIn, Max VisibilityMiles, Mean VisibilityMiles, Min VisibilityMiles, Max Wind SpeedMPH, Mean Wind SpeedMPH, Max Gust SpeedMPH,PrecipitationIn, CloudCover, Events, WindDirDegrees
2012-10-1,67,56,44,51,47,42,86,67,48,29.83,29.80,29.75,10,10,2,16,6,22,0.00,0,,36
2012-10-2,72,57,42,49,44,41,86,61,35,29.89,29.85,29.81,10,10,10,13,4,16,0.00,0,,336
2012-10-3,71,64,56,56,53,48,86,70,53,30.03,29.97,29.88,10,8,4,13,6,,0.00,4,,198
2012-10-4,78,64,50,59,54,45,86,66,45,30.17,30.11,30.04,10,10,10,18,9,24,0.00,3,,241
2012-10-5,50,43,36,45,43,35,96,85,74,30.24,30.18,30.14,10,7,1,16,8,23,0.80,7,Rain-Thunderstorm,13
2012-10-6,44,39,34,38,35,32,92,81,70,30.28,30.25,30.22,10,10,10,12,5,23,T,5,,303
2012-10-7,53,42,31,34,31,28,92,67,41,30.31,30.24,30.17,10,10,10,13,5,26,0.00,1,,300
2012-10-8,59,45,31,37,33,28,92,66,40,30.22,30.14,30.05,10,10,6,17,9,22,0.00,0,,203
2012-10-9,66,54,41,52,43,37,83,63,43,30.04,29.99,29.91,10,10,5,24,11,31,0.01,3,Rain,205
2012-10-10,57,46,35,43,35,28,96,66,35,30.29,30.19,30.07,10,10,10,13,5,21,0.00,1,,334
2012-10-11,59,49,39,50,42,30,96,75,54,30.21,30.17,30.10,10,9,5,21,9,24,T,6,Rain-Thunderstorm,163
2012-10-12,61,55,49,54,49,42,100,83,66,30.32,30.24,30.18,10,10,8,16,8,20,0.00,6,,83
2012-10-13,76,66,56,64,61,54,93,79,64,30.14,29.94,29.78,10,7,2,26,14,33,1.13,7,Rain-Thunderstorm,189
2012-10-14,66,55,44,61,55,42,93,75,56,29.98,29.77,29.64,10,9,2,26,13,37,0.26,6,Rain,227
2012-10-15,73,58,42,48,44,41,92,64,35,30.03,29.97,29.90,10,10,10,12,5,,0.00,0,,195
2012-10-16,80,67,54,50,46,42,77,54,30,29.89,29.74,29.61,10,9,2,24,13,30,0.00,0,,197
2012-10-17,67,56,44,61,54,44,96,78,60,29.62,29.51,29.41,10,9,1,31,12,43,0.43,5,Rain-Thunderstorm,222
2012-10-18,61,50,38,41,34,30,89,63,36,29.67,29.63,29.60,10,10,10,29,15,39,0.00,4,,245
2012-10-19,51,49,46,42,40,35,86,70,54,29.82,29.70,29.59,10,10,10,24,12,31,T,8,Rain,275
2012-10-20,68,53,38,43,41,37,100,69,37,29.91,29.84,29.81,10,10,10,12,6,14,0.00,1,,189
2012-10-21,78,66,53,65,55,43,84,69,53,29.91,29.86,29.83,10,10,10,16,10,22,0.00,2,,169
2012-10-22,79,72,65,65,63,60,93,77,60,29.92,29.88,29.85,10,10,9,23,13,29,0.00,3,,179
2012-10-23,81,72,62,62,60,55,87,78,68,29.94,29.88,29.82,10,10,5,20,12,30,0.27,3,Rain-Thunderstorm,190
2012-10-24,81,72,63,63,60,57,87,71,52,29.95,29.89,29.83,10,10,0,22,14,28,0.00,1,Fog,182
2012-10-25,78,60,42,61,50,36,94,82,62,30.17,29.91,29.78,10,8,1,29,14,37,0.20,6,Rain,270
2012-10-26,49,42,34,34,29,26,79,64,48,30.36,30.30,30.19,10,10,10,18,12,25,0.00,2,,355
2012-10-27,48,39,29,29,28,26,89,68,47,30.34,30.28,30.23,10,10,10,13,8,17,0.00,0,,1
2012-10-28,50,39,28,30,26,23,89,64,41,30.30,30.26,30.23,10,10,9,13,5,20,0.00,0,,355
2012-10-29,52,38,24,32,26,19,88,62,28,30.34,30.25,30.14,10,10,10,7,3,33,0.00,2,,20
2012-10-30,56,43,29,28,26,22,79,54,30,30.13,30.02,29.93,10,10,4,14,6,,0.00,0,,321
2012-10-31,57,46,35,28,25,17,70,49,22,30.01,29.99,29.96,10,10,10,16,8,22,0.00,0,,302